Time;durP1;ratioP1;P1;durP2;ratioP2;P2;SDS_P1;SDS_P2;PMS_P1;PMS_P2;Temp;Humidity;BMP_temperature;BMP_pressure;BME280_temperature;BME280_humidity;BME280_pressure;Samples;Min_cycle;Max_cycle;Signal;HPM_P1;HPM_P2
2023/02/18 00:00:48;;;;;;;4.70;2.80;;;;;;;7.87;100.00;96270.62;108866;1276;22697;-80
2023/02/18 00:03:26;;;;;;;3.70;3.00;;;;;;;7.86;100.00;96280.76;108921;1269;22536;-80
2023/02/18 00:05:57;;;;;;;3.40;2.80;;;;;;;7.88;100.00;96272.33;108873;1276;22552;-80
2023/02/18 00:08:29;;;;;;;3.70;2.60;;;;;;;7.88;100.00;96267.25;108884;1276;96323;-80
2023/02/18 00:11:00;;;;;;;4.10;2.50;;;;;;;7.90;100.00;96280.40;108910;1276;22573;-80
2023/02/18 00:13:31;;;;;;;3.40;2.70;;;;;;;7.97;100.00;96278.40;108797;1268;22552;-80
2023/02/18 00:16:04;;;;;;;3.40;1.80;;;;;;;8.06;100.00;96273.57;108857;1276;22602;-80
2023/02/18 00:18:35;;;;;;;3.30;2.10;;;;;;;8.17;99.97;96267.89;108847;1276;45789;-80
2023/02/18 00:21:08;;;;;;;3.90;2.20;;;;;;;8.20;99.46;96270.36;108882;1272;22530;-80
2023/02/18 00:23:39;;;;;;;2.40;2.10;;;;;;;8.21;98.95;96252.87;108880;1276;22623;-80
2023/02/18 00:26:13;;;;;;;2.70;2.00;;;;;;;8.30;98.42;96278.01;108916;1275;22567;-80
2023/02/18 00:28:44;;;;;;;2.80;2.30;;;;;;;8.28;98.00;96283.98;108905;1276;44396;-80
2023/02/18 00:31:20;;;;;;;2.40;1.90;;;;;;;8.32;97.92;96281.34;108766;1276;22615;-80
2023/02/18 00:33:51;;;;;;;4.20;2.10;;;;;;;8.32;97.71;96290.32;108795;1271;22543;-80
2023/02/18 00:36:24;;;;;;;2.70;2.30;;;;;;;8.27;97.62;96284.14;108853;1276;22536;-80
2023/02/18 00:38:57;;;;;;;3.70;2.20;;;;;;;8.20;97.74;96281.45;108798;1276;37155;-80
2023/02/18 00:41:29;;;;;;;2.40;1.90;;;;;;;8.24;97.82;96292.67;108859;1268;23288;-80
2023/02/18 00:44:00;;;;;;;4.00;2.70;;;;;;;8.33;97.43;96287.46;108874;1276;22533;-80
2023/02/18 00:46:32;;;;;;;2.40;2.00;;;;;;;8.41;97.03;96292.63;108897;1271;22545;-80
2023/02/18 00:49:04;;;;;;;3.50;2.10;;;;;;;8.41;96.53;96282.73;108879;1276;37065;-80
2023/02/18 00:51:35;;;;;;;1.50;1.30;;;;;;;8.49;95.68;96278.59;108882;1271;22557;-79
2023/02/18 00:54:06;;;;;;;2.40;1.60;;;;;;;8.55;94.91;96286.21;108897;1276;24245;-79
2023/02/18 00:56:37;;;;;;;3.10;2.20;;;;;;;8.61;94.35;96288.62;108883;1265;24243;-80
2023/02/18 00:59:08;;;;;;;2.80;2.10;;;;;;;8.57;93.89;96280.01;108883;1276;22591;-80
2023/02/18 01:01:39;;;;;;;2.30;2.00;;;;;;;8.58;93.55;96286.94;108872;1272;22549;-79
2023/02/18 01:04:10;;;;;;;2.10;1.60;;;;;;;8.53;92.98;96290.98;108804;1276;22541;-79
2023/02/18 01:06:41;;;;;;;2.90;2.40;;;;;;;8.58;92.44;96286.73;108855;1276;22520;-80
2023/02/18 01:09:12;;;;;;;3.80;2.10;;;;;;;8.63;91.83;96293.25;108775;1276;22537;-79
2023/02/18 01:11:43;;;;;;;2.20;1.20;;;;;;;8.60;91.57;96278.89;108878;1276;25457;-79
2023/02/18 01:14:14;;;;;;;4.00;2.20;;;;;;;8.64;91.21;96278.51;108868;1276;24185;-80
2023/02/18 01:16:45;;;;;;;3.80;1.90;;;;;;;8.64;91.04;96286.96;108913;1268;22538;-79
2023/02/18 01:19:16;;;;;;;2.80;1.60;;;;;;;8.61;91.09;96280.86;108873;1276;32398;-79
2023/02/18 01:21:48;;;;;;;2.30;1.80;;;;;;;8.59;90.81;96272.98;108833;1276;23244;-79
2023/02/18 01:24:19;;;;;;;2.30;1.60;;;;;;;8.64;90.29;96280.56;108838;1276;22554;-80
2023/02/18 01:26:50;;;;;;;2.20;1.70;;;;;;;8.67;90.25;96281.59;108894;1273;23629;-79
2023/02/18 01:29:21;;;;;;;2.10;1.80;;;;;;;8.58;90.70;96286.09;108795;1271;22551;-79
2023/02/18 01:31:53;;;;;;;1.80;1.30;;;;;;;8.48;90.96;96281.08;108777;1275;22539;-79
2023/02/18 01:34:25;;;;;;;2.10;1.90;;;;;;;8.44;91.56;96278.86;108904;1271;22537;-79
2023/02/18 01:36:59;;;;;;;2.50;1.70;;;;;;;8.47;91.79;96280.30;108762;1271;22590;-79
2023/02/18 01:39:30;;;;;;;1.90;1.60;;;;;;;8.46;92.02;96283.52;108885;1276;22547;-79
2023/02/18 01:42:04;;;;;;;3.40;2.40;;;;;;;8.45;92.09;96286.90;108885;1275;22541;-79
2023/02/18 01:44:35;;;;;;;2.70;1.70;;;;;;;8.42;92.25;96287.02;108886;1276;25343;-79
2023/02/18 01:47:06;;;;;;;1.60;1.20;;;;;;;8.44;92.19;96289.29;108888;1276;25350;-79
2023/02/18 01:49:39;;;;;;;4.10;2.20;;;;;;;8.44;92.20;96295.58;108858;1268;22538;-79
2023/02/18 01:52:16;;;;;;;2.70;2.00;;;;;;;8.45;91.86;96297.38;108907;1271;22631;-79
2023/02/18 01:54:50;;;;;;;2.50;2.30;;;;;;;8.48;91.26;96290.70;108769;1276;22526;-79
2023/02/18 01:57:24;;;;;;;3.50;1.70;;;;;;;8.56;90.68;96315.70;108896;1273;22543;-78
2023/02/18 01:59:58;;;;;;;2.10;1.80;;;;;;;8.64;90.35;96322.74;108890;1257;24290;-79
2023/02/18 02:02:37;;;;;;;2.80;2.20;;;;;;;8.61;90.62;96335.02;108932;1272;22583;-80
2023/02/18 02:05:08;;;;;;;1.60;1.50;;;;;;;8.54;91.55;96377.64;108873;1271;22550;-79
2023/02/18 02:07:41;;;;;;;3.40;1.70;;;;;;;8.36;91.52;96373.35;108830;1276;22530;-81
2023/02/18 02:10:14;;;;;;;2.30;1.50;;;;;;;8.10;92.04;96370.08;108814;1276;45536;-80
2023/02/18 02:12:56;;;;;;;4.00;1.50;;;;;;;7.85;91.42;96370.98;108809;1276;22543;-80
2023/02/18 02:15:38;;;;;;;1.60;1.10;;;;;;;7.73;90.12;96352.25;108863;1271;23092;-82
2023/02/18 02:18:34;;;;;;;3.90;1.50;;;;;;;7.69;90.44;96356.05;108921;1268;22548;-81
2023/02/18 02:21:36;;;;;;;3.50;1.90;;;;;;;7.74;90.21;96357.21;108910;1276;22646;-80
2023/02/18 02:24:51;;;;;;;4.10;2.60;;;;;;;7.75;90.66;96362.86;108913;1276;22543;-81
2023/02/18 02:27:30;;;;;;;4.00;2.80;;;;;;;7.66;91.59;96332.52;108748;1268;22544;-81
2023/02/18 02:30:32;;;;;;;3.20;2.80;;;;;;;7.64;91.85;96365.77;108899;1276;22587;-81
2023/02/18 02:33:48;;;;;;;5.10;2.80;;;;;;;7.63;91.82;96379.17;108647;1276;24272;-80
2023/02/18 02:36:25;;;;;;;4.60;3.00;;;;;;;7.57;91.91;96387.71;108661;1274;180325;-79
2023/02/18 02:39:04;;;;;;;6.60;3.20;;;;;;;7.55;91.44;96374.27;108867;1276;57956;-80
2023/02/18 02:41:47;;;;;;;5.90;3.20;;;;;;;7.59;90.42;96362.34;108815;1276;22608;-79
2023/02/18 02:44:27;;;;;;;3.20;2.50;;;;;;;7.67;88.58;96359.64;108928;1276;22546;-79
2023/02/18 02:47:07;;;;;;;4.50;2.60;;;;;;;7.65;89.04;96371.84;108913;1270;24249;-78
2023/02/18 02:49:48;;;;;;;3.20;2.50;;;;;;;7.65;88.18;96350.05;108881;1272;22677;-78
2023/02/18 02:52:25;;;;;;;4.10;3.10;;;;;;;7.71;87.25;96376.15;108499;1276;22530;-78
2023/02/18 02:54:56;;;;;;;3.60;2.60;;;;;;;7.73;85.63;96376.42;108845;1276;22555;-78
2023/02/18 02:57:50;;;;;;;3.50;2.70;;;;;;;7.79;84.20;96366.92;108903;1276;22699;-78
2023/02/18 03:00:30;;;;;;;4.60;2.20;;;;;;;7.75;83.12;96366.35;108860;1277;22555;-79
2023/02/18 03:03:30;;;;;;;3.90;2.20;;;;;;;7.66;82.83;96378.11;108378;1277;24965;-78
2023/02/18 03:06:19;;;;;;;1.70;1.20;;;;;;;7.52;83.47;96389.30;108415;1276;22546;-78
2023/02/18 03:08:58;;;;;;;3.50;2.10;;;;;;;7.40;83.87;96389.19;108446;1276;22530;-78
2023/02/18 03:11:35;;;;;;;2.90;1.50;;;;;;;7.30;84.01;96387.80;108572;1276;22641;-78
2023/02/18 03:14:17;;;;;;;3.20;1.60;;;;;;;7.25;83.93;96382.69;108546;1276;25359;-78
2023/02/18 03:16:56;;;;;;;1.70;1.20;;;;;;;7.23;84.33;96398.61;108634;1269;22711;-78
2023/02/18 03:19:33;;;;;;;4.10;1.80;;;;;;;7.16;84.77;96400.39;108456;1275;67691;-78
2023/02/18 03:22:10;;;;;;;3.00;1.90;;;;;;;7.09;85.00;96407.13;108606;1274;25404;-78
2023/02/18 03:24:43;;;;;;;3.20;2.00;;;;;;;7.12;85.25;96394.85;108510;1276;22523;-78
2023/02/18 03:27:18;;;;;;;3.60;2.00;;;;;;;7.20;84.83;96409.23;108568;1268;25352;-78
2023/02/18 03:29:58;;;;;;;3.00;1.70;;;;;;;7.21;84.31;96411.75;108543;1268;22932;-78
2023/02/18 03:32:29;;;;;;;;;;;;;;;7.22;84.09;96402.57;108556;1276;22525;-79
2023/02/18 03:35:06;;;;;;;3.40;1.90;;;;;;;7.25;83.77;96406.15;108530;1276;22629;-79
2023/02/18 03:37:43;;;;;;;2.30;1.60;;;;;;;7.27;82.99;96403.99;108559;1271;24771;-78
2023/02/18 03:40:16;;;;;;;2.70;1.50;;;;;;;7.34;81.76;96418.46;108556;1276;22553;-78
2023/02/18 03:42:47;;;;;;;4.10;2.20;;;;;;;7.39;81.87;96437.50;108453;1276;25257;-78
2023/02/18 03:45:18;;;;;;;3.20;1.90;;;;;;;7.33;82.04;96443.09;108560;1276;22537;-78
2023/02/18 03:47:49;;;;;;;3.00;2.20;;;;;;;7.26;82.49;96446.07;108581;1268;22630;-78
2023/02/18 03:50:20;;;;;;;2.40;1.80;;;;;;;7.21;82.66;96442.43;108514;1276;73688;-78
2023/02/18 03:52:54;;;;;;;2.90;2.00;;;;;;;7.20;82.41;96451.88;108548;1275;25512;-78
2023/02/18 03:55:25;;;;;;;2.30;2.00;;;;;;;7.18;82.29;96444.73;108602;1275;22541;-78
2023/02/18 03:57:55;;;;;;;2.80;1.90;;;;;;;7.18;82.34;96448.95;108557;1276;23293;-79
2023/02/18 04:00:26;;;;;;;3.30;2.10;;;;;;;7.17;82.34;96448.73;108461;1276;22548;-78
2023/02/18 04:02:57;;;;;;;2.70;2.10;;;;;;;7.13;82.50;96452.67;108582;1276;22538;-78
2023/02/18 04:05:28;;;;;;;4.00;2.00;;;;;;;7.08;82.67;96453.36;108552;1274;22815;-78
2023/02/18 04:07:59;;;;;;;4.40;2.40;;;;;;;7.05;82.66;96445.61;108468;1266;65521;-78
2023/02/18 04:10:30;;;;;;;2.40;2.20;;;;;;;7.08;82.93;96449.56;108578;1276;22543;-78
2023/02/18 04:13:01;;;;;;;3.80;2.00;;;;;;;7.07;82.96;96440.13;108594;1276;22538;-78
2023/02/18 04:15:33;;;;;;;4.50;2.10;;;;;;;7.12;83.18;96456.01;108899;1276;22537;-79
2023/02/18 04:18:04;;;;;;;4.90;2.30;;;;;;;7.13;83.24;96446.73;108907;1276;24403;-79
2023/02/18 04:20:36;;;;;;;3.30;2.40;;;;;;;7.09;83.41;96455.27;108596;1276;25513;-78
2023/02/18 04:23:07;;;;;;;4.40;2.40;;;;;;;7.08;83.64;96451.73;108575;1273;24500;-78
2023/02/18 04:25:38;;;;;;;4.00;2.90;;;;;;;7.10;83.65;96450.31;108850;1274;22543;-78
2023/02/18 04:28:12;;;;;;;5.50;2.90;;;;;;;7.10;83.57;96452.00;108797;1276;23342;-79
2023/02/18 04:30:43;;;;;;;3.20;2.10;;;;;;;7.08;83.26;96455.73;108536;1269;25297;-78
2023/02/18 04:33:16;;;;;;;4.10;2.50;;;;;;;7.11;82.99;96446.83;108567;1276;22527;-78
2023/02/18 04:35:47;;;;;;;3.70;2.00;;;;;;;7.11;82.17;96452.57;108568;1276;22541;-78
2023/02/18 04:38:18;;;;;;;5.50;2.30;;;;;;;7.11;81.38;96452.73;108538;1266;46653;-78
2023/02/18 04:40:49;;;;;;;5.40;2.40;;;;;;;7.07;80.64;96456.10;108557;1276;25406;-78
2023/02/18 04:43:21;;;;;;;3.00;1.60;;;;;;;7.05;79.70;96447.14;108539;1274;22533;-78
2023/02/18 04:45:52;;;;;;;2.90;1.70;;;;;;;7.11;78.94;96461.27;108584;1276;24469;-79
2023/02/18 04:48:22;;;;;;;4.20;2.30;;;;;;;7.09;76.79;96448.25;108908;1274;23223;-79
2023/02/18 04:50:54;;;;;;;2.90;1.30;;;;;;;7.17;75.29;96455.39;108923;1276;25384;-78
2023/02/18 04:53:25;;;;;;;2.90;2.00;;;;;;;7.20;75.44;96469.59;108896;1276;22482;-78
2023/02/18 04:55:56;;;;;;;2.40;1.90;;;;;;;7.17;75.65;96469.57;108562;1276;22747;-78
2023/02/18 04:58:30;;;;;;;2.90;1.50;;;;;;;7.11;75.24;96465.70;108511;1276;101718;-78
2023/02/18 05:01:03;;;;;;;4.20;1.90;;;;;;;7.13;74.57;96456.90;108551;1273;22543;-78
2023/02/18 05:03:35;;;;;;;3.00;1.50;;;;;;;7.15;73.77;96472.09;108532;1276;22531;-79
2023/02/18 05:06:06;;;;;;;2.90;1.40;;;;;;;7.10;73.82;96472.19;108561;1276;24095;-78
2023/02/18 05:08:37;;;;;;;2.10;1.30;;;;;;;7.06;72.67;96474.55;108395;1274;22534;-78
2023/02/18 05:11:10;;;;;;;1.30;0.70;;;;;;;7.04;69.62;96476.27;108584;1269;22534;-78
2023/02/18 05:13:41;;;;;;;2.20;0.90;;;;;;;7.03;68.48;96488.34;108580;1276;22585;-78
2023/02/18 05:16:13;;;;;;;4.40;1.20;;;;;;;6.99;67.85;96497.44;108560;1276;22565;-78
2023/02/18 05:18:45;;;;;;;1.70;0.90;;;;;;;6.99;67.94;96486.69;108497;1273;22547;-78
2023/02/18 05:21:16;;;;;;;3.00;1.30;;;;;;;6.92;68.37;96479.34;108536;1264;23061;-78
2023/02/18 05:23:47;;;;;;;1.50;1.20;;;;;;;6.86;68.78;96486.84;108527;1271;24239;-78
2023/02/18 05:26:18;;;;;;;1.80;1.00;;;;;;;6.79;69.30;96490.94;108534;1276;22543;-78
2023/02/18 05:28:52;;;;;;;1.50;1.00;;;;;;;6.75;69.80;96494.49;108457;1275;128526;-79
2023/02/18 05:31:23;;;;;;;2.40;1.10;;;;;;;6.71;69.71;96489.10;108539;1270;24283;-78
2023/02/18 05:33:55;;;;;;;3.10;1.00;;;;;;;6.72;69.62;96493.69;108524;1269;22725;-78
2023/02/18 05:36:26;;;;;;;2.70;1.30;;;;;;;6.71;69.27;96499.73;108521;1274;22598;-78
2023/02/18 05:38:57;;;;;;;2.60;0.90;;;;;;;6.71;69.12;96492.84;108489;1268;37950;-78
2023/02/18 05:41:28;;;;;;;0.90;0.70;;;;;;;6.77;67.77;96486.55;108526;1276;22527;-78
2023/02/18 05:46:49;;;;;;;1.20;0.90;;;;;;;6.89;66.22;96514.89;108625;1276;22629;-78
2023/02/18 05:49:20;;;;;;;1.70;0.70;;;;;;;6.89;63.96;96510.63;108516;1270;28885;-78
2023/02/18 05:51:51;;;;;;;1.80;0.80;;;;;;;6.91;63.24;96524.10;108478;1276;25376;-78
2023/02/18 05:54:23;;;;;;;1.20;0.70;;;;;;;6.88;63.08;96517.42;108590;1276;22768;-78
2023/02/18 05:56:55;;;;;;;2.00;0.50;;;;;;;6.83;61.92;96511.50;108471;1267;24494;-78
2023/02/18 05:59:26;;;;;;;1.10;0.60;;;;;;;6.81;61.44;96518.82;108463;1275;72230;-78
2023/02/18 06:01:59;;;;;;;1.50;0.80;;;;;;;6.75;61.47;96517.99;108539;1276;22540;-77
2023/02/18 06:04:30;;;;;;;1.80;1.10;;;;;;;6.70;61.61;96518.91;108543;1274;22544;-78
2023/02/18 06:07:01;;;;;;;1.60;0.90;;;;;;;6.66;61.54;96518.90;108494;1276;22527;-78
2023/02/18 06:09:33;;;;;;;1.90;0.80;;;;;;;6.66;61.49;96511.36;108484;1276;56938;-78
2023/02/18 06:12:05;;;;;;;2.90;1.20;;;;;;;6.69;60.47;96504.89;108549;1271;25355;-78
2023/02/18 06:14:36;;;;;;;1.50;1.00;;;;;;;6.73;60.50;96501.74;108521;1276;26019;-78
2023/02/18 06:17:07;;;;;;;1.00;0.50;;;;;;;6.76;60.52;96511.00;108534;1259;22552;-78
2023/02/18 06:19:38;;;;;;;3.10;1.10;;;;;;;6.82;59.99;96501.91;108443;1273;67282;-78
2023/02/18 06:22:10;;;;;;;1.80;0.80;;;;;;;6.90;59.66;96507.95;108522;1276;22586;-78
2023/02/18 06:24:41;;;;;;;1.90;0.60;;;;;;;6.96;58.96;96502.23;108563;1276;22530;-78
2023/02/18 06:27:12;;;;;;;2.70;0.80;;;;;;;7.03;58.12;96521.08;108535;1276;22653;-77
2023/02/18 06:29:47;;;;;;;1.30;0.50;;;;;;;7.07;58.00;96515.73;108484;1274;30602;-78
2023/02/18 06:32:18;;;;;;;2.10;0.70;;;;;;;7.12;57.05;96522.48;108436;1276;22731;-77
2023/02/18 06:34:49;;;;;;;1.50;0.60;;;;;;;7.15;56.88;96511.58;108541;1276;25339;-78
2023/02/18 06:37:20;;;;;;;0.90;0.50;;;;;;;7.16;55.33;96515.00;108537;1276;22565;-78
2023/02/18 06:39:53;;;;;;;2.10;0.50;;;;;;;7.21;54.98;96520.25;108515;1276;39548;-78
2023/02/18 06:42:24;;;;;;;2.00;0.60;;;;;;;7.29;55.04;96532.83;108472;1276;22538;-78
2023/02/18 06:44:55;;;;;;;1.90;0.70;;;;;;;7.42;53.06;96522.60;108534;1276;22529;-77
2023/02/18 06:47:26;;;;;;;0.50;0.30;;;;;;;7.59;51.61;96526.37;108464;1276;27802;-78
2023/02/18 06:49:58;;;;;;;2.10;0.60;;;;;;;7.76;50.20;96528.98;108472;1274;62364;-78
2023/02/18 06:52:32;;;;;;;3.20;0.90;;;;;;;8.00;50.23;96522.27;108555;1276;22527;-77
2023/02/18 06:55:04;;;;;;;2.50;1.00;;;;;;;8.21;49.93;96526.27;108549;1276;22550;-78
2023/02/18 06:57:35;;;;;;;1.90;0.90;;;;;;;8.23;50.42;96522.79;108490;1276;24388;-78
2023/02/18 07:00:09;;;;;;;3.40;1.10;;;;;;;8.51;50.86;96521.47;108493;1276;63217;-78
2023/02/18 07:02:41;;;;;;;0.70;0.30;;;;;;;9.08;49.40;96528.20;108494;1276;22537;-78
2023/02/18 07:05:12;;;;;;;1.50;0.40;;;;;;;9.21;48.13;96528.83;108523;1276;22602;-78
2023/02/18 07:07:43;;;;;;;4.10;1.00;;;;;;;8.84;49.13;96530.49;108451;1273;22517;-78
2023/02/18 07:10:14;;;;;;;1.60;0.60;;;;;;;8.44;49.73;96529.41;108540;1275;74276;-77
2023/02/18 07:12:47;;;;;;;3.60;0.80;;;;;;;8.12;50.23;96531.51;108560;1276;22715;-78
2023/02/18 07:15:23;;;;;;;2.20;0.60;;;;;;;7.89;51.18;96529.48;108526;1261;22531;-78
2023/02/18 07:17:56;;;;;;;1.30;0.60;;;;;;;7.73;52.46;96539.34;108512;1274;22548;-78
2023/02/18 07:20:28;;;;;;;1.70;1.20;;;;;;;7.62;52.97;96538.42;108574;1276;25311;-78
2023/02/18 07:22:59;;;;;;;3.50;0.90;;;;;;;7.56;53.64;96534.86;108524;1276;26595;-78
2023/02/18 07:25:30;;;;;;;2.00;1.00;;;;;;;7.50;53.42;96543.66;108499;1270;25484;-77
2023/02/18 07:28:02;;;;;;;3.60;0.80;;;;;;;7.49;53.13;96532.06;108445;1271;43781;-78
2023/02/18 07:30:34;;;;;;;3.50;1.10;;;;;;;7.54;52.60;96540.23;108532;1268;22525;-77
2023/02/18 07:33:06;;;;;;;1.80;0.80;;;;;;;7.56;52.38;96532.96;108536;1276;24246;-78
2023/02/18 07:35:37;;;;;;;3.90;0.90;;;;;;;7.57;52.08;96541.29;108529;1276;22612;-77
2023/02/18 07:38:09;;;;;;;4.30;1.00;;;;;;;7.57;52.59;96552.70;108520;1276;28606;-77
2023/02/18 07:40:40;;;;;;;2.90;0.90;;;;;;;7.56;53.22;96561.71;108500;1268;22534;-77
2023/02/18 07:43:12;;;;;;;3.30;1.50;;;;;;;7.55;52.28;96554.01;108495;1276;22526;-77
2023/02/18 07:45:44;;;;;;;4.10;1.10;;;;;;;7.54;52.07;96563.77;108585;1276;22555;-77
2023/02/18 07:48:15;;;;;;;1.80;0.90;;;;;;;7.52;51.98;96561.86;108463;1276;86397;-78
2023/02/18 07:50:47;;;;;;;2.00;0.80;;;;;;;7.46;52.12;96562.70;108553;1276;24232;-78
2023/02/18 07:53:25;;;;;;;1.80;0.70;;;;;;;7.42;51.11;96551.91;108534;1276;22547;-77
2023/02/18 07:55:59;;;;;;;2.20;0.70;;;;;;;7.41;50.84;96556.50;108466;1272;24224;-78
2023/02/18 07:58:32;;;;;;;3.60;1.30;;;;;;;7.40;51.03;96559.92;108364;1277;51864;-77
2023/02/18 08:01:06;;;;;;;1.60;0.80;;;;;;;7.39;50.64;96552.64;108586;1276;22567;-77
2023/02/18 08:03:38;;;;;;;3.60;1.10;;;;;;;7.38;50.92;96568.77;108519;1276;22551;-77
2023/02/18 08:06:19;;;;;;;2.10;0.80;;;;;;;7.35;51.05;96578.48;108437;1272;22643;-77
2023/02/18 08:08:51;;;;;;;1.10;0.60;;;;;;;7.34;49.96;96562.08;108483;1276;46866;-78
2023/02/18 08:11:22;;;;;;;3.70;1.10;;;;;;;7.33;49.16;96555.48;108438;1273;22543;-77
2023/02/18 08:13:53;;;;;;;2.50;1.10;;;;;;;7.32;49.71;96560.16;108433;1276;22549;-77
2023/02/18 08:16:25;;;;;;;5.00;1.70;;;;;;;7.30;50.22;96556.61;108487;1276;22536;-78
2023/02/18 08:18:57;;;;;;;3.30;0.90;;;;;;;7.28;50.53;96548.38;108490;1274;37661;-77
2023/02/18 08:21:28;;;;;;;2.70;0.90;;;;;;;7.25;50.61;96566.25;108533;1276;22783;-77
2023/02/18 08:24:03;;;;;;;2.60;0.60;;;;;;;7.25;50.64;96556.39;108523;1272;23966;-78
2023/02/18 08:26:35;;;;;;;1.90;0.70;;;;;;;7.25;50.78;96562.19;108491;1276;24489;-77
2023/02/18 08:29:06;;;;;;;3.60;2.00;;;;;;;7.26;51.35;96560.45;108522;1264;35940;-77
2023/02/18 08:31:37;;;;;;;2.10;1.00;;;;;;;7.27;50.56;96562.02;108537;1276;22555;-78
2023/02/18 08:34:09;;;;;;;2.70;1.20;;;;;;;7.29;49.76;96540.16;108556;1276;22532;-78
2023/02/18 08:36:41;;;;;;;5.10;2.10;;;;;;;7.35;49.34;96556.33;108481;1276;22542;-77
2023/02/18 08:39:12;;;;;;;2.20;0.50;;;;;;;7.39;49.87;96561.29;108506;1276;111146;-78
2023/02/18 08:41:44;;;;;;;3.50;1.30;;;;;;;7.43;49.75;96557.18;108624;1276;22583;-77
2023/02/18 08:44:15;;;;;;;3.70;0.90;;;;;;;7.45;50.22;96569.00;108633;1276;22545;-77
2023/02/18 08:46:47;;;;;;;3.30;1.00;;;;;;;7.47;49.39;96565.86;108644;1276;22578;-77
2023/02/18 08:49:19;;;;;;;3.10;0.90;;;;;;;7.50;49.12;96553.27;108564;1274;49245;-77
2023/02/18 08:51:51;;;;;;;2.60;0.90;;;;;;;7.51;48.88;96563.71;108658;1274;22544;-77
2023/02/18 08:54:22;;;;;;;2.80;0.70;;;;;;;7.52;48.58;96558.02;108627;1274;25781;-77
2023/02/18 08:56:56;;;;;;;3.90;1.30;;;;;;;7.53;48.92;96558.86;108600;1276;25338;-77
2023/02/18 08:59:27;;;;;;;1.10;0.70;;;;;;;7.54;49.58;96563.61;108605;1276;73602;-78
2023/02/18 09:01:59;;;;;;;1.40;0.60;;;;;;;7.55;48.95;96545.67;108510;1276;22595;-78
2023/02/18 09:04:30;;;;;;;1.90;0.60;;;;;;;7.54;48.71;96533.69;108360;1276;22672;-78
2023/02/18 09:07:02;;;;;;;2.70;0.90;;;;;;;7.53;48.72;96531.16;108442;1276;22569;-78
2023/02/18 09:09:34;;;;;;;3.40;1.10;;;;;;;7.56;48.07;96535.92;108515;1270;50645;-78
2023/02/18 09:12:07;;;;;;;1.80;0.70;;;;;;;7.60;47.88;96514.92;108521;1276;24231;-78
2023/02/18 09:14:38;;;;;;;3.00;0.90;;;;;;;7.58;48.76;96541.51;108878;1270;22591;-78
2023/02/18 09:17:10;;;;;;;1.40;0.40;;;;;;;7.56;48.98;96543.89;108839;1272;22581;-78
2023/02/18 09:19:41;;;;;;;1.80;0.50;;;;;;;7.56;48.95;96536.70;108834;1276;54053;-78
2023/02/18 09:22:12;;;;;;;2.40;0.70;;;;;;;7.56;49.17;96549.47;108831;1276;22552;-78
2023/02/18 09:24:43;;;;;;;2.70;0.80;;;;;;;7.58;49.87;96544.46;108554;1275;22546;-79
2023/02/18 09:27:14;;;;;;;3.80;0.70;;;;;;;7.60;49.60;96538.78;108429;1270;22615;-78
2023/02/18 09:29:47;;;;;;;1.00;0.60;;;;;;;7.63;49.79;96544.34;108569;1275;22540;-78
2023/02/18 09:32:18;;;;;;;2.10;0.80;;;;;;;7.65;50.22;96537.63;108502;1276;23790;-78
2023/02/18 09:34:49;;;;;;;1.20;0.60;;;;;;;7.67;49.92;96532.88;108404;1276;22554;-78
2023/02/18 09:37:20;;;;;;;4.00;1.20;;;;;;;7.68;49.47;96546.98;108514;1276;25267;-78
2023/02/18 09:39:51;;;;;;;1.60;0.90;;;;;;;7.65;49.52;96534.67;108472;1276;22585;-78
2023/02/18 09:42:28;;;;;;;2.00;0.80;;;;;;;7.63;49.44;96534.67;108430;1271;22540;-78
2023/02/18 09:45:04;;;;;;;3.60;1.10;;;;;;;7.65;48.60;96519.32;108420;1273;24249;-77
2023/02/18 09:47:39;;;;;;;4.40;1.10;;;;;;;7.70;49.25;96537.27;108531;1276;22553;-78
2023/02/18 09:50:21;;;;;;;1.70;0.80;;;;;;;7.73;48.60;96529.61;108791;1276;51403;-77
2023/02/18 09:52:53;;;;;;;1.60;0.60;;;;;;;7.75;48.51;96546.27;108514;1268;25423;-77
2023/02/18 09:55:30;;;;;;;2.70;1.00;;;;;;;7.76;48.52;96533.33;108533;1276;22541;-79
2023/02/18 09:58:05;;;;;;;3.60;1.40;;;;;;;7.77;47.91;96521.03;108496;1276;22582;-78
2023/02/18 10:00:39;;;;;;;1.70;0.80;;;;;;;7.78;48.44;96533.33;108509;1273;22552;-78
2023/02/18 10:03:16;;;;;;;2.50;1.00;;;;;;;7.81;48.55;96514.12;108541;1269;22535;-78
2023/02/18 10:05:56;;;;;;;2.40;0.80;;;;;;;7.81;48.91;96521.50;108526;1276;22531;-77
2023/02/18 10:08:32;;;;;;;3.90;1.30;;;;;;;7.82;48.78;96517.39;108338;1270;51120;-78
2023/02/18 10:11:04;;;;;;;2.00;1.00;;;;;;;7.84;48.87;96517.39;108442;1274;22568;-78
2023/02/18 10:13:36;;;;;;;1.30;0.80;;;;;;;7.84;49.40;96510.05;108510;1270;22578;-78
2023/02/18 10:16:08;;;;;;;1.80;0.80;;;;;;;7.86;47.90;96511.63;108558;1276;22598;-77
2023/02/18 10:18:47;;;;;;;4.20;1.10;;;;;;;7.89;47.93;96486.27;108503;1273;22643;-78
2023/02/18 10:21:24;;;;;;;3.00;1.00;;;;;;;7.92;48.56;96498.82;108502;1276;22534;-78
2023/02/18 10:24:01;;;;;;;1.30;0.80;;;;;;;8.03;48.83;96500.40;108472;1267;25463;-78
2023/02/18 10:26:39;;;;;;;1.00;0.40;;;;;;;8.20;47.58;96484.72;108598;1270;22548;-78
2023/02/18 10:29:17;;;;;;;3.00;0.70;;;;;;;8.28;47.56;96482.17;108451;1276;22646;-78
2023/02/18 10:31:56;;;;;;;3.10;0.80;;;;;;;8.42;47.63;96478.11;108519;1276;24241;-77
2023/02/18 10:34:40;;;;;;;3.90;1.00;;;;;;;8.50;46.35;96457.81;108495;1276;21760;-78
2023/02/18 10:37:26;;;;;;;1.70;0.70;;;;;;;8.52;45.93;96454.37;108879;1270;22526;-79
2023/02/18 10:40:08;;;;;;;1.90;0.70;;;;;;;8.53;45.83;96438.98;108755;1276;22699;-77
2023/02/18 10:42:48;;;;;;;3.60;0.60;;;;;;;8.49;44.52;96439.38;108819;1276;25552;-78
2023/02/18 10:45:31;;;;;;;2.00;0.90;;;;;;;8.52;44.86;96445.91;108836;1276;22537;-79
2023/02/18 10:48:21;;;;;;;1.20;0.50;;;;;;;8.64;45.13;96434.10;108849;1269;22612;-78
2023/02/18 10:50:52;;;;;;;2.00;0.70;;;;;;;8.65;44.92;96441.91;108416;1276;22720;-78
2023/02/18 10:53:31;;;;;;;1.90;0.90;;;;;;;8.66;45.16;96432.34;108470;1276;23121;-78
2023/02/18 10:56:02;;;;;;;5.60;1.20;;;;;;;8.62;45.49;96432.46;108519;1273;22591;-78
2023/02/18 10:58:42;;;;;;;4.30;0.70;;;;;;;8.53;45.02;96438.66;108496;1276;62988;-78
2023/02/18 11:01:19;;;;;;;1.60;0.40;;;;;;;8.43;45.54;96424.75;108839;1276;22563;-79
2023/02/18 11:04:07;;;;;;;2.40;0.80;;;;;;;8.30;45.95;96430.25;108888;1276;22694;-78
2023/02/18 11:06:45;;;;;;;2.20;0.70;;;;;;;8.19;46.35;96436.09;108891;1276;22566;-78
2023/02/18 11:09:38;;;;;;;0.50;0.30;;;;;;;8.14;47.31;96417.80;108567;1276;44855;-78
2023/02/18 11:12:19;;;;;;;2.10;0.70;;;;;;;8.07;48.33;96426.48;108404;1271;23090;-78
2023/02/18 11:15:05;;;;;;;3.70;1.60;;;;;;;8.06;48.53;96418.94;108765;1276;22563;-79
2023/02/18 11:17:37;;;;;;;4.70;2.90;;;;;;;8.07;49.52;96415.23;108778;1276;26470;-78
2023/02/18 11:20:24;;;;;;;3.00;1.40;;;;;;;8.08;50.98;96413.81;108380;1269;22552;-78
2023/02/18 11:22:59;;;;;;;9.30;3.50;;;;;;;8.04;52.66;96398.40;108431;1276;24840;-78
2023/02/18 11:25:35;;;;;;;3.30;1.30;;;;;;;8.01;53.53;96414.43;108853;1272;24866;-78
2023/02/18 11:28:26;;;;;;;3.00;2.00;;;;;;;7.96;54.04;96399.84;108773;1276;28416;-79
2023/02/18 11:31:01;;;;;;;2.70;1.10;;;;;;;7.90;53.96;96398.31;108507;1273;23179;-78
2023/02/18 11:33:39;;;;;;;7.30;2.60;;;;;;;7.87;54.30;96417.77;108508;1272;22552;-77
2023/02/18 11:36:24;;;;;;;6.70;1.70;;;;;;;7.77;54.31;96408.14;108372;1276;25347;-78
2023/02/18 11:38:58;;;;;;;16.70;8.60;;;;;;;7.60;54.95;96410.77;108461;1273;47002;-78
2023/02/18 11:41:37;;;;;;;4.80;0.90;;;;;;;7.47;55.25;96403.75;108493;1276;22546;-78
2023/02/18 11:44:21;;;;;;;5.60;1.50;;;;;;;7.40;55.84;96403.01;108514;1276;24251;-79
2023/02/18 11:47:02;;;;;;;2.60;1.30;;;;;;;7.35;55.85;96388.98;108486;1276;22537;-78
2023/02/18 11:49:35;;;;;;;2.20;0.70;;;;;;;7.28;56.42;96391.59;108473;1273;60617;-78
2023/02/18 11:52:15;;;;;;;2.70;1.30;;;;;;;7.22;57.06;96381.16;108478;1276;22551;-78
2023/02/18 11:55:05;;;;;;;1.50;1.00;;;;;;;7.17;57.36;96389.78;108405;1276;24366;-78
2023/02/18 11:57:38;;;;;;;;;;;;;;;7.15;57.84;96391.10;108627;1261;22518;-78
2023/02/18 12:00:22;;;;;;;3.80;1.30;;;;;;;7.17;57.98;96387.95;108469;1276;37869;-77
2023/02/18 12:02:58;;;;;;;1.80;1.20;;;;;;;7.24;58.13;96376.67;108529;1276;24395;-78
2023/02/18 12:05:32;;;;;;;3.10;1.10;;;;;;;7.32;58.10;96369.31;108478;1276;22546;-78
2023/02/18 12:08:11;;;;;;;4.10;1.20;;;;;;;7.31;58.56;96362.45;108501;1276;38975;-78
2023/02/18 12:10:47;;;;;;;4.00;1.80;;;;;;;7.26;59.12;96355.95;108467;1276;25436;-78